createdAt,value
2018-11-12T00:00:20.874Z,4.80
2018-11-12T00:02:55.179Z,5.03
2018-11-12T00:05:24.328Z,4.80
2018-11-12T00:07:53.458Z,5.17
2018-11-12T00:10:22.540Z,5.07
2018-11-12T00:12:51.654Z,5.03
2018-11-12T00:15:20.673Z,4.37
2018-11-12T00:17:49.676Z,4.63
2018-11-12T00:20:19.026Z,4.43
2018-11-12T00:22:48.294Z,4.63
2018-11-12T00:25:17.374Z,4.27
2018-11-12T00:27:46.446Z,4.50
2018-11-12T00:30:22.884Z,5.00
2018-11-12T00:32:52.942Z,4.47
2018-11-12T00:35:22.162Z,4.83
2018-11-12T00:37:51.168Z,5.00
2018-11-12T00:40:20.258Z,4.40
2018-11-12T00:42:49.401Z,4.00
2018-11-12T00:45:18.442Z,4.80
2018-11-12T00:47:47.395Z,4.80
2018-11-12T00:50:16.649Z,4.13
2018-11-12T00:52:45.659Z,4.53
2018-11-12T00:55:15.734Z,4.77
2018-11-12T00:57:45.362Z,4.53
2018-11-12T01:00:16.225Z,4.77
2018-11-12T01:02:46.638Z,4.40
2018-11-12T01:05:16.325Z,4.90
2018-11-12T01:07:45.719Z,4.70
2018-11-12T01:10:15.762Z,4.90
2018-11-12T01:12:45.235Z,4.77
2018-11-12T01:15:15.574Z,5.67
2018-11-12T01:17:44.890Z,5.80
2018-11-12T01:20:14.971Z,5.83
2018-11-12T01:22:44.215Z,5.93
2018-11-12T01:25:13.811Z,5.83
2018-11-12T01:27:43.499Z,6.90
2018-11-12T01:30:14.671Z,6.00
2018-11-12T01:32:43.997Z,5.80
2018-11-12T01:35:14.049Z,5.83
2018-11-12T01:37:43.285Z,5.70
2018-11-12T01:40:13.169Z,5.87
2018-11-12T01:42:42.813Z,5.00
2018-11-12T01:45:14.149Z,5.53
2018-11-12T01:47:44.241Z,5.50
2018-11-12T01:50:13.765Z,4.60
2018-11-12T01:52:43.569Z,4.90
2018-11-12T01:55:13.833Z,4.97
2018-11-12T01:57:43.288Z,4.30
2018-11-12T02:00:15.569Z,4.97
2018-11-12T02:02:46.113Z,4.40
2018-11-12T02:05:15.489Z,4.10
2018-11-12T02:07:44.493Z,5.10
2018-11-12T02:10:14.707Z,5.20
2018-11-12T02:12:44.104Z,4.13
2018-11-12T02:15:16.085Z,4.93
2018-11-12T02:17:46.325Z,5.30
2018-11-12T02:20:16.643Z,5.00
2018-11-12T02:22:46.871Z,4.17
2018-11-12T02:25:16.356Z,4.80
2018-11-12T02:27:45.352Z,5.13
2018-11-12T02:30:16.573Z,4.40
2018-11-12T02:32:45.716Z,5.13
2018-11-12T02:35:14.994Z,5.00
2018-11-12T02:37:44.090Z,4.50
2018-11-12T02:40:13.626Z,4.90
2018-11-12T02:42:43.501Z,4.90
2018-11-12T02:45:13.624Z,4.73
2018-11-12T02:47:43.652Z,5.40
2018-11-12T02:50:15.028Z,5.17
2018-11-12T02:52:44.176Z,4.40
2018-11-12T02:55:15.096Z,4.10
2018-11-12T02:57:45.045Z,4.53
2018-11-12T03:00:17.340Z,4.50
2018-11-12T03:02:46.474Z,4.50
2018-11-12T03:05:15.470Z,4.43
2018-11-12T03:07:44.575Z,4.23
2018-11-12T03:10:15.876Z,4.10
2018-11-12T03:12:44.958Z,4.53
2018-11-12T03:15:14.826Z,3.80
2018-11-12T03:17:44.578Z,3.50
2018-11-12T03:20:14.871Z,3.80
2018-11-12T03:22:43.943Z,4.87
2018-11-12T03:25:14.216Z,4.00
2018-11-12T03:27:44.178Z,4.00
2018-11-12T03:30:14.346Z,4.17
2018-11-12T03:32:44.258Z,4.50
2018-11-12T03:35:13.862Z,4.10
2018-11-12T03:37:44.078Z,3.90
2018-11-12T03:40:15.319Z,4.20
2018-11-12T03:42:44.926Z,3.83
2018-11-12T03:45:16.400Z,4.27
2018-11-12T03:47:45.384Z,4.50
2018-11-12T03:50:16.626Z,4.80
2018-11-12T03:52:45.920Z,4.30
2018-11-12T03:55:16.361Z,4.63
2018-11-12T03:57:45.393Z,5.03
2018-11-12T04:00:16.861Z,4.83
2018-11-12T04:02:45.949Z,4.93
2018-11-12T04:05:15.016Z,4.97
2018-11-12T04:07:44.106Z,5.13
2018-11-12T04:10:15.486Z,4.57
2018-11-12T04:12:44.506Z,5.30
2018-11-12T04:15:16.165Z,4.93
2018-11-12T04:17:45.207Z,5.33
2018-11-12T04:20:15.713Z,5.70
2018-11-12T04:22:50.270Z,5.50
2018-11-12T04:25:19.838Z,5.03
2018-11-12T04:27:48.902Z,5.80
2018-11-12T04:30:17.914Z,5.30
2018-11-12T04:32:47.432Z,5.93
2018-11-12T04:35:16.570Z,6.53
2018-11-12T04:37:45.610Z,6.13
2018-11-12T04:40:16.231Z,5.83
2018-11-12T04:42:45.425Z,5.70
2018-11-12T04:45:15.546Z,5.90
2018-11-12T04:47:45.365Z,5.53
2018-11-12T04:50:16.418Z,5.57
2018-11-12T04:52:45.642Z,5.50
2018-11-12T04:55:16.922Z,5.47
2018-11-12T04:57:46.249Z,5.60
2018-11-12T05:00:18.441Z,6.00
2018-11-12T05:02:47.517Z,5.50
2018-11-12T05:05:17.966Z,5.23
2018-11-12T05:07:47.001Z,5.20
2018-11-12T05:10:20.261Z,5.40
2018-11-12T05:12:49.927Z,5.40
2018-11-12T05:15:20.035Z,5.10
2018-11-12T05:17:49.013Z,5.20
2018-11-12T05:20:20.245Z,5.20
2018-11-12T05:22:49.303Z,4.40
2018-11-12T05:25:18.509Z,4.73
2018-11-12T05:27:47.613Z,4.63
2018-11-12T05:30:19.643Z,5.27
2018-11-12T05:32:48.625Z,5.00
2018-11-12T05:35:20.109Z,4.90
2018-11-12T05:37:49.209Z,4.23
2018-11-12T05:40:20.337Z,4.10
2018-11-12T05:42:49.477Z,4.60
2018-11-12T05:45:19.641Z,4.83
2018-11-12T05:47:48.633Z,4.63
2018-11-12T05:50:19.813Z,4.80
2018-11-12T05:52:50.910Z,4.60
2018-11-12T05:55:21.579Z,4.30
2018-11-12T05:57:50.590Z,4.10
2018-11-12T06:00:22.853Z,4.87
2018-11-12T06:02:51.934Z,4.17
2018-11-12T06:05:21.049Z,4.60
2018-11-12T06:07:50.119Z,4.73
2018-11-12T06:10:22.173Z,4.20
2018-11-12T06:12:51.361Z,4.50
2018-11-12T06:15:20.564Z,5.80
2018-11-12T06:17:50.486Z,4.60
2018-11-12T06:20:21.237Z,4.37
2018-11-12T06:22:50.464Z,4.63
2018-11-12T06:25:20.859Z,4.40
2018-11-12T06:27:50.251Z,5.20
2018-11-12T06:30:20.795Z,4.50
2018-11-12T06:32:49.972Z,5.13
2018-11-12T06:35:19.508Z,5.60
2018-11-12T06:37:49.490Z,5.30
2018-11-12T06:40:20.740Z,5.40
2018-11-12T06:42:50.010Z,6.10
2018-11-12T06:45:24.474Z,5.93
2018-11-12T06:47:54.358Z,6.80
2018-11-12T06:50:24.701Z,7.30
2018-11-12T06:52:53.899Z,7.00
2018-11-12T06:55:23.310Z,6.83
2018-11-12T06:57:52.822Z,6.23
2018-11-12T07:00:28.534Z,6.77
2018-11-12T07:02:57.628Z,6.97
2018-11-12T07:05:26.935Z,7.73
2018-11-12T07:07:55.940Z,7.20
2018-11-12T07:10:26.181Z,7.10
2018-11-12T07:12:56.079Z,7.17
2018-11-12T07:15:26.488Z,7.27
2018-11-12T07:17:55.493Z,6.63
2018-11-12T07:20:25.592Z,6.37
2018-11-12T07:22:54.835Z,6.83
2018-11-12T07:25:28.088Z,7.80
2018-11-12T07:27:57.118Z,7.83
2018-11-12T07:30:27.339Z,7.83
2018-11-12T07:32:57.458Z,8.37
2018-11-12T07:35:26.822Z,10.07
2018-11-12T07:37:56.659Z,9.40
2018-11-12T07:40:26.047Z,9.20
2018-11-12T07:42:55.042Z,8.30
2018-11-12T07:45:25.418Z,8.83
2018-11-12T07:47:55.200Z,8.33
2018-11-12T07:50:25.618Z,8.73
2018-11-12T07:52:54.612Z,8.70
2018-11-12T07:55:24.906Z,9.20
2018-11-12T07:57:54.957Z,8.37
2018-11-12T08:00:30.234Z,8.40
2018-11-12T08:03:06.608Z,8.40
2018-11-12T08:05:36.078Z,9.03
2018-11-12T08:08:05.373Z,8.03
2018-11-12T08:10:34.443Z,7.90
2018-11-12T08:13:03.538Z,8.03
2018-11-12T08:15:32.674Z,8.53
2018-11-12T08:18:01.746Z,7.73
2018-11-12T08:20:30.721Z,7.57
2018-11-12T08:22:59.738Z,7.80
2018-11-12T08:25:28.896Z,7.87
2018-11-12T08:27:58.035Z,7.40
2018-11-12T08:30:28.317Z,7.83
2018-11-12T08:32:58.625Z,8.40
2018-11-12T08:35:27.882Z,7.80
2018-11-12T08:37:57.386Z,8.97
2018-11-12T08:40:27.619Z,9.60
2018-11-12T08:42:56.631Z,8.97
2018-11-12T08:45:25.776Z,8.77
2018-11-12T08:47:55.789Z,7.87
2018-11-12T08:50:25.929Z,8.93
2018-11-12T08:52:55.713Z,8.27
2018-11-12T08:55:26.439Z,8.07
2018-11-12T08:57:56.795Z,7.17
2018-11-12T09:00:26.487Z,6.40
2018-11-12T09:02:55.752Z,7.57
2018-11-12T09:05:26.008Z,7.47
2018-11-12T09:07:56.665Z,7.47
2018-11-12T09:10:27.059Z,7.27
2018-11-12T09:12:56.305Z,8.43
2018-11-12T09:15:25.380Z,7.40
2018-11-12T09:17:54.569Z,8.53
2018-11-12T09:20:24.977Z,7.57
2018-11-12T09:22:54.507Z,7.30
2018-11-12T09:25:24.910Z,8.40
2018-11-12T09:27:53.950Z,9.40
2018-11-12T09:30:25.316Z,8.50
2018-11-12T09:32:54.349Z,8.47
2018-11-12T09:35:25.401Z,8.73
2018-11-12T09:37:55.326Z,7.97
2018-11-12T09:40:27.617Z,8.17
2018-11-12T09:42:56.742Z,7.43
2018-11-12T09:45:25.762Z,7.20
2018-11-12T09:47:54.925Z,8.57
2018-11-12T09:50:24.978Z,8.10
2018-11-12T09:52:55.230Z,8.03
2018-11-12T09:55:25.420Z,8.53
2018-11-12T09:57:58.930Z,7.87
2018-11-12T10:00:28.179Z,8.00
2018-11-12T10:02:58.076Z,8.23
2018-11-12T10:05:27.545Z,9.00
2018-11-12T10:07:59.151Z,10.20
2018-11-12T10:10:40.318Z,12.07
2018-11-12T10:13:10.808Z,12.67
2018-11-12T10:15:41.213Z,12.00
2018-11-12T10:18:09.209Z,13.03
2018-11-12T10:20:36.070Z,14.03
2018-11-12T10:23:05.266Z,12.93
2018-11-12T10:25:34.351Z,13.23
2018-11-12T10:28:03.537Z,12.77
2018-11-12T10:30:32.610Z,13.53
2018-11-12T10:33:01.726Z,12.00
2018-11-12T10:35:30.942Z,12.30
2018-11-12T10:38:00.066Z,12.93
2018-11-12T10:40:29.125Z,9.60
2018-11-12T10:42:58.194Z,9.63
2018-11-12T10:45:27.262Z,10.37
2018-11-12T10:47:56.406Z,9.40
2018-11-12T10:50:25.494Z,9.57
2018-11-12T10:52:54.526Z,8.47
2018-11-12T10:55:25.008Z,9.80
2018-11-12T10:57:54.339Z,9.93
2018-11-12T11:00:30.881Z,9.17
2018-11-12T11:03:06.446Z,8.97
2018-11-12T11:05:36.437Z,9.10
2018-11-12T11:08:05.619Z,6.63
2018-11-12T11:10:34.683Z,7.20
2018-11-12T11:13:04.679Z,6.10
2018-11-12T11:15:34.582Z,6.57
2018-11-12T11:18:03.548Z,6.33
2018-11-12T11:20:32.670Z,6.17
2018-11-12T11:23:02.065Z,5.93
2018-11-12T11:25:31.211Z,5.73
2018-11-12T11:28:00.261Z,6.17
2018-11-12T11:30:29.265Z,6.00
2018-11-12T11:32:58.366Z,5.80
2018-11-12T11:35:27.461Z,7.23
2018-11-12T11:37:56.499Z,6.80
2018-11-12T11:40:26.658Z,7.10
2018-11-12T11:42:55.670Z,7.67
2018-11-12T11:45:24.941Z,8.30
2018-11-12T11:47:54.416Z,7.57
2018-11-12T11:50:24.802Z,5.80
2018-11-12T11:52:53.787Z,7.13
2018-11-12T11:55:23.878Z,5.60
2018-11-12T11:57:53.304Z,4.53
2018-11-12T12:00:29.629Z,4.37
2018-11-12T12:02:59.378Z,3.70
2018-11-12T12:05:28.856Z,3.83
2018-11-12T12:07:58.373Z,4.37
2018-11-12T12:10:27.489Z,4.77
2018-11-12T12:12:56.617Z,4.33
2018-11-12T12:15:25.752Z,4.30
2018-11-12T12:17:54.749Z,4.13
2018-11-12T12:20:25.081Z,3.03
2018-11-12T12:22:54.619Z,3.20
2018-11-12T12:25:23.873Z,2.90
2018-11-12T12:27:53.003Z,2.40
2018-11-12T12:30:24.350Z,2.13
2018-11-12T12:32:54.657Z,2.23
2018-11-12T12:35:23.689Z,1.83
2018-11-12T12:37:53.092Z,1.83
2018-11-12T12:40:23.185Z,2.23
2018-11-12T12:42:52.309Z,1.90
2018-11-12T12:45:22.886Z,1.80
2018-11-12T12:47:52.329Z,2.43
2018-11-12T12:50:21.593Z,2.67
2018-11-12T12:52:50.581Z,3.13
2018-11-12T12:55:19.879Z,2.77
2018-11-12T12:57:49.079Z,2.60
2018-11-12T13:00:20.788Z,2.83
2018-11-12T13:02:49.780Z,3.10
2018-11-12T13:05:18.828Z,3.00
2018-11-12T13:07:47.849Z,2.40
2018-11-12T13:10:18.453Z,2.83
2018-11-12T13:12:47.477Z,2.60
2018-11-12T13:15:17.753Z,3.33
2018-11-12T13:17:47.603Z,3.30
2018-11-12T13:20:17.961Z,3.70
2018-11-12T13:22:47.605Z,3.40
2018-11-12T13:25:16.718Z,4.17
2018-11-12T13:27:46.326Z,4.40
2018-11-12T13:30:16.823Z,4.87
2018-11-12T13:32:46.392Z,5.43
2018-11-12T13:35:16.670Z,5.33
2018-11-12T13:37:45.693Z,5.67
2018-11-12T13:40:16.503Z,5.53
2018-11-12T13:42:46.923Z,6.90
2018-11-12T13:45:15.956Z,5.87
2018-11-12T13:47:45.321Z,6.27
2018-11-12T13:50:19.759Z,5.30
2018-11-12T13:52:49.339Z,3.67
2018-11-12T13:55:19.579Z,3.27
2018-11-12T13:57:48.772Z,3.80
2018-11-12T14:00:20.353Z,3.23
2018-11-12T14:02:50.142Z,3.77
2018-11-12T14:05:20.598Z,3.97
2018-11-12T14:07:49.778Z,4.30
2018-11-12T14:10:20.446Z,3.77
2018-11-12T14:12:50.330Z,3.13
2018-11-12T14:15:20.818Z,2.87
2018-11-12T14:17:50.570Z,3.10
2018-11-12T14:20:20.261Z,3.03
2018-11-12T14:22:49.254Z,2.97
2018-11-12T14:25:19.250Z,2.90
2018-11-12T14:27:50.003Z,3.17
2018-11-12T14:30:21.372Z,3.70
2018-11-12T14:32:50.568Z,3.57
2018-11-12T14:35:19.756Z,3.37
2018-11-12T14:37:48.842Z,3.60
2018-11-12T14:40:19.480Z,3.90
2018-11-12T14:42:48.646Z,4.87
2018-11-12T14:45:19.971Z,4.10
2018-11-12T14:47:49.346Z,3.97
2018-11-12T14:50:18.645Z,3.40
2018-11-12T14:52:48.046Z,3.50
2018-11-12T14:55:17.896Z,3.43
2018-11-12T14:57:46.944Z,3.70
2018-11-12T15:00:21.177Z,3.83
2018-11-12T15:02:50.724Z,3.73
2018-11-12T15:05:21.059Z,4.17
2018-11-12T15:07:50.292Z,3.90
2018-11-12T15:10:19.389Z,3.37
2018-11-12T15:12:49.164Z,2.80
2018-11-12T15:15:18.188Z,3.03
2018-11-12T15:17:47.264Z,3.03
2018-11-12T15:20:18.612Z,3.10
2018-11-12T15:22:47.729Z,3.00
2018-11-12T15:25:20.281Z,3.10
2018-11-12T15:27:49.286Z,3.10
2018-11-12T15:30:19.606Z,3.20
2018-11-12T15:32:49.832Z,3.00
2018-11-12T15:35:19.121Z,3.60
2018-11-12T15:37:48.672Z,3.57
2018-11-12T15:40:17.773Z,4.30
2018-11-12T15:42:46.884Z,4.43
2018-11-12T15:45:19.210Z,5.20
2018-11-12T15:47:48.617Z,4.77
2018-11-12T15:50:27.319Z,5.07
2018-11-12T15:52:56.344Z,6.30
2018-11-12T15:55:25.552Z,6.17
2018-11-12T15:57:54.902Z,6.53
2018-11-12T16:00:23.897Z,6.63
2018-11-12T16:02:53.045Z,7.70
2018-11-12T16:05:22.201Z,7.53
2018-11-12T16:07:51.289Z,7.13
2018-11-12T16:10:21.331Z,8.73
2018-11-12T16:12:50.413Z,8.77
2018-11-12T16:15:20.515Z,9.13
2018-11-12T16:17:49.549Z,9.77
2018-11-12T16:20:26.207Z,11.03
2018-11-12T16:22:55.912Z,10.93
2018-11-12T16:25:25.396Z,10.30
2018-11-12T16:27:54.466Z,10.40
2018-11-12T16:30:23.707Z,9.73
2018-11-12T16:32:52.811Z,10.23
2018-11-12T16:35:23.126Z,10.93
2018-11-12T16:37:53.065Z,10.43
2018-11-12T16:40:22.213Z,11.50
2018-11-12T16:42:51.441Z,12.83
2018-11-12T16:45:20.445Z,12.90
2018-11-12T16:47:49.540Z,13.47
2018-11-12T16:50:18.717Z,14.20
2018-11-12T16:52:48.006Z,15.27
2018-11-12T16:55:18.544Z,15.30
2018-11-12T16:57:47.944Z,15.87
2018-11-12T17:00:18.398Z,16.57
2018-11-12T17:02:47.806Z,16.17
2018-11-12T17:05:18.296Z,16.40
2018-11-12T17:07:47.523Z,17.60
2018-11-12T17:10:17.812Z,17.60
2018-11-12T17:12:47.644Z,16.40
2018-11-12T17:15:16.853Z,18.80
2018-11-12T17:17:46.341Z,22.23
2018-11-12T17:20:17.603Z,21.50
2018-11-12T17:22:46.618Z,20.67
2018-11-12T17:25:16.279Z,21.03
2018-11-12T17:27:45.677Z,21.43
2018-11-12T17:30:16.979Z,23.80
2018-11-12T17:32:47.519Z,22.00
2018-11-12T17:35:17.699Z,21.83
2018-11-12T17:37:46.767Z,22.67
2018-11-12T17:40:24.306Z,22.03
2018-11-12T17:42:54.114Z,21.87
2018-11-12T17:45:27.698Z,23.17
2018-11-12T17:47:57.727Z,21.63
2018-11-12T17:50:26.842Z,22.43
2018-11-12T17:52:55.852Z,23.30
2018-11-12T17:55:24.878Z,21.73
2018-11-12T17:57:53.869Z,23.63
2018-11-12T18:00:33.122Z,23.33
2018-11-12T18:03:02.226Z,23.00
2018-11-12T18:05:31.306Z,22.57
2018-11-12T18:08:00.399Z,21.57
2018-11-12T18:10:29.394Z,23.60
2018-11-12T18:12:58.501Z,22.50
2018-11-12T18:15:27.579Z,22.90
2018-11-12T18:17:56.674Z,22.63
2018-11-12T18:20:27.010Z,22.33
2018-11-12T18:22:56.585Z,22.87
2018-11-12T18:25:25.577Z,21.33
2018-11-12T18:27:55.105Z,21.93
2018-11-12T18:30:28.601Z,20.47
2018-11-12T18:32:58.233Z,21.03
2018-11-12T18:35:27.354Z,19.40
2018-11-12T18:37:56.848Z,21.40
2018-11-12T18:40:27.338Z,17.53
2018-11-12T18:42:56.411Z,19.13
2018-11-12T18:45:26.453Z,18.70
2018-11-12T18:47:55.778Z,18.30
2018-11-12T18:50:26.366Z,18.87
2018-11-12T18:52:55.376Z,19.87
2018-11-12T18:55:24.523Z,18.33
2018-11-12T18:57:54.100Z,18.53
2018-11-12T19:00:24.186Z,18.53
2018-11-12T19:02:53.374Z,18.33
2018-11-12T19:05:23.801Z,17.20
2018-11-12T19:07:54.138Z,17.60
2018-11-12T19:10:24.370Z,17.80
2018-11-12T19:12:53.654Z,16.37
2018-11-12T19:15:25.226Z,18.07
2018-11-12T19:17:55.637Z,16.87
2018-11-12T19:20:24.650Z,16.80
2018-11-12T19:22:53.974Z,16.07
2018-11-12T19:25:23.152Z,16.63
2018-11-12T19:27:52.229Z,17.40
2018-11-12T19:30:23.709Z,16.77
2018-11-12T19:32:52.832Z,15.83
2018-11-12T19:35:23.426Z,15.93
2018-11-12T19:37:52.625Z,15.67
2018-11-12T19:40:22.961Z,16.30
2018-11-12T19:42:52.957Z,15.70
2018-11-12T19:45:22.068Z,14.63
2018-11-12T19:47:51.842Z,13.67
2018-11-12T19:50:22.092Z,16.03
2018-11-12T19:52:52.510Z,14.63
2018-11-12T19:55:21.610Z,14.60
2018-11-12T19:57:50.722Z,13.57
2018-11-12T20:00:21.138Z,13.00
2018-11-12T20:02:51.440Z,13.97
2018-11-12T20:05:20.466Z,14.17
2018-11-12T20:07:49.652Z,13.80
2018-11-12T20:10:19.857Z,14.10
2018-11-12T20:12:48.954Z,14.20
2018-11-12T20:15:19.384Z,15.23
2018-11-12T20:17:49.282Z,15.63
2018-11-12T20:20:19.931Z,16.83
2018-11-12T20:22:49.518Z,16.87
2018-11-12T20:25:19.214Z,16.93
2018-11-12T20:27:49.054Z,16.63
2018-11-12T20:30:22.271Z,17.53
2018-11-12T20:32:51.357Z,16.50
2018-11-12T20:35:20.457Z,15.93
2018-11-12T20:37:49.523Z,17.23
2018-11-12T20:40:18.545Z,16.37
2018-11-12T20:42:48.347Z,16.07
2018-11-12T20:45:18.819Z,17.13
2018-11-12T20:47:49.188Z,15.97
2018-11-12T20:50:18.241Z,15.57
2018-11-12T20:52:47.464Z,16.70
2018-11-12T20:55:17.304Z,16.57
2018-11-12T20:57:46.450Z,16.67
2018-11-12T21:00:17.931Z,17.63
2018-11-12T21:02:48.253Z,16.47
2018-11-12T21:05:17.825Z,16.53
2018-11-12T21:07:46.782Z,16.97
2018-11-12T21:10:17.085Z,18.60
2018-11-12T21:12:46.714Z,16.60
2018-11-12T21:15:16.769Z,17.07
2018-11-12T21:17:45.805Z,17.13
2018-11-12T21:20:22.095Z,17.20
2018-11-12T21:22:51.252Z,17.20
2018-11-12T21:25:21.593Z,17.30
2018-11-12T21:27:50.910Z,17.37
2018-11-12T21:30:28.149Z,18.33
2018-11-12T21:32:57.232Z,17.10
2018-11-12T21:35:26.398Z,16.77
2018-11-12T21:37:56.398Z,17.93
2018-11-12T21:40:27.738Z,16.60
2018-11-12T21:42:56.952Z,16.67
2018-11-12T21:45:27.482Z,16.57
2018-11-12T21:47:56.636Z,16.90
2018-11-12T21:50:25.853Z,16.13
2018-11-12T21:52:54.992Z,15.73
2018-11-12T21:55:24.111Z,16.80
2018-11-12T21:57:53.150Z,16.43
2018-11-12T22:00:23.551Z,15.80
2018-11-12T22:02:54.710Z,16.80
2018-11-12T22:05:24.146Z,16.03
2018-11-12T22:07:53.168Z,15.87
2018-11-12T22:10:22.399Z,16.70
2018-11-12T22:12:52.224Z,16.70
2018-11-12T22:15:21.264Z,16.57
2018-11-12T22:17:50.344Z,15.90
2018-11-12T22:20:20.746Z,16.07
2018-11-12T22:22:49.840Z,16.03
2018-11-12T22:25:20.278Z,15.83
2018-11-12T22:27:50.066Z,17.23
2018-11-12T22:30:21.320Z,16.07
2018-11-12T22:32:51.442Z,16.67
2018-11-12T22:35:20.538Z,15.90
2018-11-12T22:37:50.050Z,17.00
2018-11-12T22:40:19.740Z,16.00
2018-11-12T22:42:50.378Z,16.07
2018-11-12T22:45:24.506Z,16.73
2018-11-12T22:47:54.112Z,16.07
2018-11-12T22:50:23.096Z,16.03
2018-11-12T22:52:52.162Z,16.27
2018-11-12T22:55:21.230Z,16.50
2018-11-12T22:57:50.280Z,16.77
2018-11-12T23:00:25.782Z,16.00
2018-11-12T23:02:55.026Z,16.07
2018-11-12T23:05:24.407Z,16.57
2018-11-12T23:07:54.234Z,16.83
2018-11-12T23:10:23.340Z,17.27
2018-11-12T23:12:52.602Z,16.33
2018-11-12T23:15:21.838Z,16.57
2018-11-12T23:17:50.947Z,17.40
2018-11-12T23:20:21.438Z,17.20
2018-11-12T23:22:50.822Z,16.50
2018-11-12T23:25:19.893Z,17.00
2018-11-12T23:27:49.675Z,16.00
2018-11-12T23:30:20.069Z,16.73
2018-11-12T23:32:49.085Z,16.60
2018-11-12T23:35:22.473Z,17.80
2018-11-12T23:37:51.731Z,18.67
2018-11-12T23:40:20.769Z,17.47
2018-11-12T23:42:49.865Z,17.60
2018-11-12T23:45:18.965Z,18.23
2018-11-12T23:47:48.014Z,19.07
2018-11-12T23:50:18.469Z,18.03
2018-11-12T23:52:49.738Z,18.67
2018-11-12T23:55:19.218Z,18.13
2018-11-12T23:57:49.151Z,18.80
